Rorichmoor — V2BV7 — position and weather

sailwx.info

Track history (hours):
 
Tides and Currents Weather Stations Pressure Air Temp Water Temp Dewpoint Dewpoint Depression Visibility Wind Speed Wind Dir Waves Ship Positions

Rorichmoor

Last reported at 2016-Jun-10 19:11 UTC. Time now 2016-Jun-29 14:44 UTC.
Position N 43°08' E 004°59'.
Warning: this ship's position is 18 days out of date.

Length 80 m; draft 4 m.

Type: Cargo ship. MMSI: 304938000.

Date/timePositionNaut miles runAvg speedWind from/ knotsBaromVisibWave heightAir tempDewpointWater temp
2016-Jun-10 19:11N 43°08' E 004°59'7 8.6
2016-Jun-10 18:19N 43°15' E 004°60'7 9.4
2016-Jun-10 17:33N 43°22' E 004°57'  
2016-Jun-08 06:34N 43°23' E 004°52'8 7.4
2016-Jun-08 05:32N 43°18' E 004°60'  
2016-Jun-05 15:32N 38°36' E 015°20'9 9.4
2016-Jun-05 14:33N 38°29' E 015°28'9 9.2
2016-Jun-05 13:33N 38°22' E 015°36'8 7.6
2016-Jun-05 12:33N 38°15' E 015°40'7 7.0
2016-Jun-05 11:33N 38°09' E 015°37'9 8.4
2016-Jun-05 10:33N 38°00' E 015°37'  
2016-Jun-01 13:20N 36°37' E 014°28'8 9.9
2016-Jun-01 12:33N 36°39' E 014°19'1010.1
2016-Jun-01 11:33N 36°42' E 014°07'1110.3
2016-Jun-01 10:29N 36°45' E 013°54'  
Track history (hours):
 
Tides and Currents Weather Stations Pressure Air Temp Water Temp Dewpoint Dewpoint Depression Visibility Wind Speed Wind Dir Waves Ship Positions

Rorichmoor

Last reported at 2016-Jun-10 19:11 UTC. Time now 2016-Jun-29 14:44 UTC.
Position N 43°08' E 004°59'.
Warning: this ship's position is 18 days out of date.

Length 80 m; draft 4 m.

Type: Cargo ship. MMSI: 304938000.

Date/timePositionNaut miles runAvg speedWind from/ knotsBaromVisibWave heightAir tempDewpointWater temp
2016-Jun-10 19:11N 43°08' E 004°59'7 8.6
2016-Jun-10 18:19N 43°15' E 004°60'7 9.4
2016-Jun-10 17:33N 43°22' E 004°57'  
2016-Jun-08 06:34N 43°23' E 004°52'8 7.4
2016-Jun-08 05:32N 43°18' E 004°60'  
2016-Jun-05 15:32N 38°36' E 015°20'9 9.4
2016-Jun-05 14:33N 38°29' E 015°28'9 9.2
2016-Jun-05 13:33N 38°22' E 015°36'8 7.6
2016-Jun-05 12:33N 38°15' E 015°40'7 7.0
2016-Jun-05 11:33N 38°09' E 015°37'9 8.4
2016-Jun-05 10:33N 38°00' E 015°37'  
2016-Jun-01 13:20N 36°37' E 014°28'8 9.9
2016-Jun-01 12:33N 36°39' E 014°19'1010.1
2016-Jun-01 11:33N 36°42' E 014°07'1110.3
2016-Jun-01 10:29N 36°45' E 013°54'  

Dump ship's entire track history